ADDS METAR Data INFO
IDs: Format: Raw Decoded Include TAF

Data at: 1332 UTC 23 Jun 2018

KPZQ 231315Z AUTO 03003KT 1 3/4SM RA OVC003 13/12 A2980 RMK AO2 T01270121
KPZQ 231255Z AUTO 00000KT 2SM +RA OVC003 13/12 A2980 RMK AO2 T01300122
KPZQ 231235Z AUTO 00000KT 2 1/2SM +RA OVC003 13/12 A2980 RMK AO2 T01280121
KPZQ 231215Z AUTO 05004KT 7SM RA OVC005 13/12 A2979 RMK AO2 T01260118
KPZQ 231155Z AUTO 00000KT 10SM DZ OVC005 13/12 A2979 RMK AO2 T01270120 10141 20125
KPZQ 231135Z AUTO 00000KT 7SM DZ OVC011 13/12 A2979 RMK AO2 T01270118
KPZQ 231115Z AUTO 00000KT 7SM DZ OVC009 13/12 A2980 RMK AO2 T01280120
KPZQ 231055Z AUTO 09003KT 7SM RA BKN007 OVC012 13/12 A2980 RMK AO2 T01260119
KPZQ 231035Z AUTO 00000KT 7SM RA SCT009 OVC014 13/12 A2980 RMK AO2 T01260117
KPZQ 231015Z AUTO 07003KT 7SM -RA OVC014 13/12 A2979 RMK AO2 T01290120
KPZQ 230955Z AUTO 05003KT 7SM DZ BKN012 BKN024 OVC055 13/12 A2980 RMK AO2 T01300120
KPZQ 230935Z AUTO 00000KT 10SM RA SCT014 SCT023 OVC055 13/12 A2980 RMK AO2 T01280117
KPZQ 230915Z AUTO 00000KT 10SM SCT018 OVC055 13/12 A2980 RMK AO2 T01280116
KPZQ 230855Z AUTO 00000KT 10SM -DZ OVC055 13/11 A2979 RMK AO2 T01260113
KPZQ 230835Z AUTO 00000KT 10SM DZ SCT009 SCT050 OVC055 13/11 A2979 RMK AO2 T01250112
KPZQ 230815Z AUTO 05003KT 10SM -RA BKN048 OVC055 13/11 A2980 RMK AO2 T01260108
KPZQ 230755Z AUTO 09003KT 10SM -RA BKN048 OVC100 13/11 A2981 RMK AO2 T01280106
KPZQ 230735Z AUTO 00000KT 10SM DZ SCT055 SCT075 OVC100 14/10 A2981 RMK AO2 T01350099
KPZQ 230715Z AUTO 11003KT 10SM RA SCT055 BKN075 OVC090 14/10 A2982 RMK AO2 T01380095
KPZQ 230655Z AUTO 10003KT 10SM SCT060 BKN075 OVC085 14/09 A2982 RMK AO2 T01400090
KPZQ 230635Z AUTO 13003KT 10SM SCT070 BKN085 OVC110 14/09 A2983 RMK AO2 T01400094
KPZQ 230615Z AUTO 00000KT 10SM SCT085 OVC110 14/09 A2984 RMK AO2 T01380093
KPZQ 230555Z AUTO 11003KT 10SM BKN120 13/09 A2984 RMK AO2 T01340092 10166 20099
KPZQ 230535Z AUTO 00000KT 10SM CLR 13/09 A2984 RMK AO2 T01300092
KPZQ 230515Z AUTO 00000KT 10SM CLR 12/10 A2984 RMK AO2 T01170096
KPZQ 230455Z AUTO 00000KT 10SM CLR 12/09 A2985 RMK AO2 T01150094
KPZQ 230435Z AUTO 00000KT 4SM BR CLR 11/09 A2985 RMK AO2 T01120093
KPZQ 230415Z AUTO 00000KT 10SM CLR 12/09 A2986 RMK AO2 T01150091
KPZQ 230355Z AUTO 00000KT 10SM CLR 11/09 A2986 RMK AO2 T01110089 402050039
KPZQ 230335Z AUTO 00000KT 10SM CLR 11/09 A2986 RMK AO2 T01140090
KPZQ 230315Z AUTO 00000KT 7SM CLR 10/09 A2986 RMK AO2 T01030085
KPZQ 230255Z AUTO 00000KT 4SM BR CLR 10/09 A2987 RMK AO2 T01020085
KPZQ 230235Z AUTO 00000KT 10SM CLR 11/09 A2987 RMK AO2 T01060086
KPZQ 230215Z AUTO 00000KT 7SM CLR 11/08 A2987 RMK AO2 T01100083
KPZQ 230155Z AUTO 00000KT 5SM HZ CLR 12/09 A2987 RMK AO2 T01190091
KPZQ 230135Z AUTO 00000KT 7SM CLR 13/10 A2987 RMK AO2 T01250099
KPZQ 230115Z AUTO 00000KT 7SM CLR 13/10 A2988 RMK AO2 T01280104
KPZQ 230055Z AUTO 06003KT 10SM CLR 14/10 A2988 RMK AO2 T01370100
KPZQ 230035Z AUTO 07005KT 10SM CLR 14/09 A2988 RMK AO2 T01410090
KPZQ 230015Z AUTO 07005KT 10SM CLR 15/09 A2989 RMK AO2 T01540091
KPZQ 222355Z AUTO 07003KT 10SM CLR 17/09 A2989 RMK AO2 T01670090 10205 20167
KPZQ 222335Z AUTO 05003KT 10SM CLR 17/10 A2989 RMK AO2 T01740096
KPZQ 222315Z AUTO 07006KT 10SM CLR 17/09 A2990 RMK AO2 T01720089
KPZQ 222255Z AUTO 08004KT 10SM CLR 18/08 A2990 RMK AO2 T01790082
KPZQ 222235Z AUTO 09005KT 7SM CLR 18/08 A2990 RMK AO2 T01750076
KPZQ 222215Z AUTO 09007KT 10SM CLR 19/07 A2990 RMK AO2 T01860066
KPZQ 222155Z AUTO 10010G14KT 10SM CLR 20/06 A2990 RMK AO2 T01950063
KPZQ 222135Z AUTO 09007KT 10SM CLR 19/07 A2991 RMK AO2 T01930074
KPZQ 222115Z AUTO 08006KT 10SM CLR 19/08 A2991 RMK AO2 T01900079
KPZQ 222055Z AUTO 09008KT 7SM CLR 20/07 A2992 RMK AO2 T01980072
KPZQ 222035Z AUTO 09006KT 10SM CLR 20/08 A2992 RMK AO2 T02020083
KPZQ 222015Z AUTO 09006KT 10SM CLR 20/08 A2993 RMK AO2 T02000078
KPZQ 221955Z AUTO 08005KT 10SM CLR 20/09 A2993 RMK AO2 T01950092
KPZQ 221935Z AUTO 06006KT 10SM CLR 18/09 A2993 RMK AO2 T01770091
KPZQ 221915Z AUTO 08007KT 7SM CLR 18/08 A2994 RMK AO2 T01750084
KPZQ 221855Z AUTO 08007KT 10SM CLR 17/09 A2994 RMK AO2 T01730090
KPZQ 221835Z AUTO 06007KT 10SM CLR 18/11 A2994 RMK AO2 T01780105
KPZQ 221815Z AUTO 08006KT 10SM CLR 17/10 A2995 RMK AO2 T01730100
KPZQ 221755Z AUTO 07008KT 10SM CLR 17/10 A2996 RMK AO2 T01700104 10194 20143
KPZQ 221735Z AUTO 06009KT 7SM CLR 17/10 A2997 RMK AO2 T01720103
KPZQ 221715Z AUTO 06009KT 10SM CLR 18/11 A2997 RMK AO2 T01800110
KPZQ 221655Z AUTO 06009KT 7SM CLR 19/11 A2997 RMK AO2 T01860107
KPZQ 221635Z AUTO 04007KT 10SM CLR 19/12 A2997 RMK AO2 T01920119
KPZQ 221615Z AUTO 05005KT 10SM CLR 19/12 A2997 RMK AO2 T01890119
KPZQ 221555Z AUTO 02005KT 10SM CLR 18/12 A2998 RMK AO2 T01770119
KPZQ 221535Z AUTO 02004KT 10SM CLR 17/12 A2998 RMK AO2 T01740119
KPZQ 221515Z AUTO 04004KT 10SM CLR 17/12 A2998 RMK AO2 T01700116
KPZQ 221455Z AUTO 06003KT 10SM CLR 17/11 A2999 RMK AO2 T01690113
KPZQ 221435Z AUTO 06004KT 10SM CLR 16/11 A2999 RMK AO2 T01570106
KPZQ 221415Z AUTO 06005KT 10SM CLR 16/10 A2999 RMK AO2 T01550103
KPZQ 221355Z AUTO 07007KT 10SM CLR 16/10 A2999 RMK AO2 T01550101
KPZQ 221335Z AUTO 05004KT 10SM CLR 15/10 A2999 RMK AO2 T01520101
KPZQ 221315Z AUTO 06005KT 7SM CLR 16/11 A2999 RMK AO2 T01630105
KPZQ 221255Z AUTO 13003KT 10SM CLR 16/09 A2998 RMK AO2 T01610091
KPZQ 221235Z AUTO 15003KT 10SM CLR 15/10 A2998 RMK AO2 T01540095
KPZQ 221215Z AUTO 08005KT 10SM CLR 15/10 A2998 RMK AO2 T01470095
KPZQ 221155Z AUTO 12003KT 10SM CLR 14/10 A2998 RMK AO2 T01420096 10142 20039
KPZQ 221135Z AUTO 11003KT 10SM CLR 13/10 A2997 RMK AO2 T01310097
KPZQ 221115Z AUTO 00000KT 10SM CLR 12/10 A2997 RMK AO2 T01150098
KPZQ 221055Z AUTO 00000KT 10SM CLR 09/07 A2997 RMK AO2 T00850073
KPZQ 221035Z AUTO 00000KT 10SM CLR 06/05 A2997 RMK AO2 T00610049
KPZQ 221015Z AUTO 00000KT 10SM CLR 04/03 A2997 RMK AO2 T00430032
KPZQ 220955Z AUTO 00000KT 10SM CLR 04/03 A2997 RMK AO2 T00410030
KPZQ 220935Z AUTO 00000KT 10SM CLR 04/03 A2997 RMK AO2 T00390027
KPZQ 220915Z AUTO 00000KT 10SM CLR 04/03 A2997 RMK AO2 T00410030
KPZQ 220855Z AUTO 00000KT 10SM CLR 04/03 A2997 RMK AO2 T00440033
KPZQ 220835Z AUTO 00000KT 10SM CLR 04/03 A2996 RMK AO2 T00430032
KPZQ 220815Z AUTO 00000KT 10SM CLR 04/03 A2997 RMK AO2 T00420030
KPZQ 220755Z AUTO 00000KT 10SM CLR 04/03 A2997 RMK AO2 T00440030
KPZQ 220735Z AUTO 00000KT 10SM CLR 04/03 A2997 RMK AO2 T00430030
KPZQ 220715Z AUTO 00000KT 10SM CLR 04/03 A2997 RMK AO2 T00440029
KPZQ 220655Z AUTO 00000KT 10SM CLR 05/03 A2998 RMK AO2 T00450029
KPZQ 220635Z AUTO 00000KT 10SM CLR 05/03 A2998 RMK AO2 T00490030
KPZQ 220615Z AUTO 00000KT 10SM CLR 05/03 A2998 RMK AO2 T00530034
KPZQ 220555Z AUTO 00000KT 10SM CLR 05/03 A2998 RMK AO2 T00520033 10175 20052
KPZQ 220535Z AUTO 00000KT 10SM CLR 06/04 A2998 RMK AO2 T00560037
KPZQ 220515Z AUTO 00000KT 10SM CLR 06/04 A2999 RMK AO2 T00570036
KPZQ 220455Z AUTO 00000KT 10SM CLR 06/04 A2999 RMK AO2 T00600038
KPZQ 220435Z AUTO 00000KT 10SM CLR 06/04 A2999 RMK AO2 T00600035
KPZQ 220415Z AUTO 00000KT 10SM CLR 07/04 A2999 RMK AO2 T00660039
KPZQ 220355Z AUTO 00000KT 10SM CLR 08/04 A2999 RMK AO2 T00750041 401800071
KPZQ 220335Z AUTO 00000KT 10SM CLR 08/04 A2999 RMK AO2 T00750042
KPZQ 220315Z AUTO 00000KT 10SM CLR 08/04 A2999 RMK AO2 T00820042
KPZQ 220255Z AUTO 00000KT 7SM CLR 09/04 A2999 RMK AO2 T00880044
KPZQ 220235Z AUTO 00000KT 10SM CLR 09/04 A2999 RMK AO2 T00940041
KPZQ 220215Z AUTO 00000KT 10SM CLR 12/04 A2998 RMK AO2 T01170041
KPZQ 220155Z AUTO 14003KT 10SM CLR 14/03 A2998 RMK AO2 T01440026
KPZQ 220135Z AUTO 14003KT 7SM CLR 15/02 A2997 RMK AO2 T01510021